This is the latest recevied weather packets stored in our database for station/object F1ZRP-13. If no packets are shown the sender has not sent any weather packets the latest 10 day(s).
| Time | Temp. | Humidity | Pressure | Rain* | Wind** | Luminosity | Snow |
|---|---|---|---|---|---|---|---|
| 1777613692 | 8.89° C | 47% | 1025.5 hPa | - | - | - | - |
| 1777612572 | 8.89° C | 47% | 1025.4 hPa | - | - | - | - |
| 1777611657 | 8.33° C | 49% | 1025.3 hPa | - | - | - | - |
| 1777610858 | 8.33° C | 49% | 1025.2 hPa | - | - | - | - |
| 1777610075 | 8.33° C | 46% | 1025.1 hPa | - | - | - | - |
| 1777609344 | 8.89° C | 44% | 1025.1 hPa | - | - | - | - |
| 1777608734 | 8.33° C | 46% | 1025.1 hPa | - | - | - | - |
| 1777607837 | 8.33° C | 46% | 1025.1 hPa | - | - | - | - |
| 1777606632 | 8.89° C | 46% | 1025.1 hPa | - | - | - | - |
| 1777605589 | 10° C | 40% | 1025.1 hPa | - | - | - | - |
| 1777604679 | 9.44° C | 42% | 1025.2 hPa | - | - | - | - |
| 1777603779 | 9.44° C | 42% | 1025.2 hPa | - | - | - | - |
| 1777602996 | 10° C | 42% | 1025.3 hPa | - | - | - | - |
| 1777602149 | 9.44° C | 43% | 1025.3 hPa | - | - | - | - |
| 1777601434 | 8.89° C | 46% | 1025.3 hPa | - | - | - | - |
| 1777600638 | 9.44° C | 45% | 1025.4 hPa | - | - | - | - |
| 1777599695 | 9.44° C | 42% | 1025.4 hPa | - | - | - | - |
| 1777598824 | 9.44° C | 43% | 1025.5 hPa | - | - | - | - |
| 1777598073 | 10° C | 39% | 1025.4 hPa | - | - | - | - |
| 1777597094 | 10.56° C | 42% | 1025.4 hPa | - | - | - | - |
| 1777596082 | 10.56° C | 39% | 1025.4 hPa | - | - | - | - |
| 1777595130 | 10.56° C | 39% | 1025.4 hPa | - | - | - | - |
| 1777593973 | 10.56° C | 41% | 1025.5 hPa | - | - | - | - |
| 1777592949 | 10.56° C | 42% | 1025.4 hPa | - | - | - | - |
| 1777591802 | 11.11° C | 38% | 1025.4 hPa | - | - | - | - |
* Rain since midnight (hover to see other rain measurements)
** Current wind speed in m/s (hover to see current wind gust speed)